Time;durP1;ratioP1;P1;durP2;ratioP2;P2;SDS_P1;SDS_P2;PMS_P1;PMS_P2;Temp;Humidity;BMP_temperature;BMP_pressure;BME280_temperature;BME280_humidity;BME280_pressure;Samples;Min_cycle;Max_cycle;Signal;HPM_P1;HPM_P2
2021/07/30 00:00:58;;;;;;;11.60;8.90;;;16.40;99.90;;;;;;5035961;28;20194;-83
2021/07/30 00:03:24;;;;;;;11.07;7.77;;;16.40;99.90;;;;;;5023450;28;20179;-83
2021/07/30 00:05:51;;;;;;;11.43;8.57;;;16.40;99.90;;;;;;5022139;28;20222;-82
2021/07/30 00:08:20;;;;;;;14.77;8.70;;;16.40;99.90;;;;;;5024058;28;20664;-82
2021/07/30 00:10:47;;;;;;;10.47;8.60;;;16.40;99.90;;;;;;5022531;28;20186;-81
2021/07/30 00:13:13;;;;;;;11.93;9.60;;;16.40;99.90;;;;;;5022321;28;20206;-83
2021/07/30 00:15:39;;;;;;;11.57;9.03;;;16.40;99.90;;;;;;5023712;28;20198;-83
2021/07/30 00:18:05;;;;;;;12.70;8.63;;;16.40;99.90;;;;;;5024216;28;20202;-82
2021/07/30 00:20:31;;;;;;;10.97;8.77;;;16.40;99.90;;;;;;5024205;28;20230;-83
2021/07/30 00:22:57;;;;;;;10.37;9.10;;;;;;;;;;5025002;28;20183;-83
2021/07/30 00:25:23;;;;;;;11.40;9.43;;;16.30;99.90;;;;;;5024105;28;20542;-83
2021/07/30 00:27:48;;;;;;;9.77;8.17;;;16.30;99.90;;;;;;5024371;28;20500;-83
2021/07/30 00:30:14;;;;;;;10.83;9.00;;;16.40;99.90;;;;;;5025475;28;20182;-83
2021/07/30 00:32:40;;;;;;;12.43;9.80;;;16.40;99.90;;;;;;5025958;28;20183;-83
2021/07/30 00:35:06;;;;;;;10.67;8.83;;;16.40;99.90;;;;;;5026662;28;20195;-83
2021/07/30 00:37:34;;;;;;;10.37;9.27;;;16.40;99.90;;;;;;5026480;28;20242;-81
2021/07/30 00:40:00;;;;;;;10.30;9.20;;;16.40;99.90;;;;;;5025312;28;20621;-80
2021/07/30 00:42:25;;;;;;;12.27;9.63;;;16.40;99.90;;;;;;5020553;28;20190;-83
2021/07/30 00:44:51;;;;;;;11.97;9.63;;;16.40;99.90;;;;;;5021973;28;20217;-82
2021/07/30 00:47:17;;;;;;;13.10;9.37;;;16.40;99.90;;;;;;5021129;28;20182;-82
2021/07/30 00:49:43;;;;;;;11.43;9.57;;;16.30;99.90;;;;;;5023028;28;20294;-82
2021/07/30 00:52:09;;;;;;;10.63;8.73;;;16.30;99.90;;;;;;5022147;28;20700;-83
2021/07/30 00:54:35;;;;;;;10.43;9.17;;;16.30;99.90;;;;;;5021948;28;20289;-83
2021/07/30 00:57:01;;;;;;;12.03;8.97;;;16.30;99.90;;;;;;5022707;28;20224;-83
2021/07/30 00:59:28;;;;;;;11.27;9.13;;;16.30;99.90;;;;;;5023873;28;20218;-82
2021/07/30 01:01:53;;;;;;;13.07;9.47;;;16.30;99.90;;;;;;5022218;28;20194;-82
2021/07/30 01:04:19;;;;;;;11.97;9.30;;;16.20;99.90;;;;;;5020314;28;20668;-82
2021/07/30 01:06:45;;;;;;;10.10;8.80;;;16.20;99.90;;;;;;5020177;28;20194;-82
2021/07/30 01:09:11;;;;;;;11.20;9.13;;;16.20;99.90;;;;;;5021978;28;20546;-82
2021/07/30 01:11:37;;;;;;;10.37;8.63;;;16.20;99.90;;;;;;5022168;28;20175;-80
2021/07/30 01:14:03;;;;;;;10.73;8.63;;;16.20;99.90;;;;;;5025607;28;20215;-80
2021/07/30 01:16:29;;;;;;;15.27;8.47;;;16.10;99.90;;;;;;5026304;28;20175;-80
2021/07/30 01:18:54;;;;;;;9.63;8.57;;;16.10;99.90;;;;;;5024706;28;20189;-80
2021/07/30 01:21:28;;;;;;;12.33;9.53;;;16.00;99.90;;;;;;5026283;28;20171;-80
2021/07/30 01:23:54;;;;;;;10.33;9.03;;;16.00;99.90;;;;;;5026053;28;20201;-80
2021/07/30 01:26:20;;;;;;;15.90;9.90;;;16.00;99.90;;;;;;5025065;28;20179;-80
2021/07/30 01:28:46;;;;;;;12.67;9.13;;;16.10;99.90;;;;;;5026571;28;20202;-82
2021/07/30 01:31:12;;;;;;;13.00;9.33;;;16.00;99.90;;;;;;5025501;28;20250;-82
2021/07/30 01:33:38;;;;;;;10.73;8.73;;;16.00;99.90;;;;;;5022966;28;20621;-82
2021/07/30 01:36:04;;;;;;;11.47;9.73;;;16.00;99.90;;;;;;5025498;28;20168;-82
2021/07/30 01:38:30;;;;;;;11.83;10.10;;;15.90;99.90;;;;;;5025029;28;20179;-83
2021/07/30 01:41:08;;;;;;;11.33;9.67;;;16.00;99.90;;;;;;5023688;28;20175;-80
2021/07/30 01:43:38;;;;;;;13.67;9.90;;;15.90;99.90;;;;;;5024286;28;20187;-80
2021/07/30 01:46:04;;;;;;;11.40;9.73;;;15.90;99.90;;;;;;5023487;28;20198;-80
2021/07/30 01:48:30;;;;;;;12.37;8.70;;;15.90;99.90;;;;;;5022400;28;20247;-80
2021/07/30 01:50:56;;;;;;;11.63;9.03;;;15.90;99.90;;;;;;5022383;28;20597;-80
2021/07/30 01:53:21;;;;;;;12.10;8.80;;;15.90;99.90;;;;;;5021808;28;20535;-80
2021/07/30 01:55:47;;;;;;;10.40;8.73;;;15.90;99.90;;;;;;5022535;28;20226;-80
2021/07/30 01:58:12;;;;;;;8.63;7.83;;;15.90;99.90;;;;;;5022360;28;20182;-82
2021/07/30 02:00:38;;;;;;;11.70;9.60;;;15.90;99.90;;;;;;5022126;28;20183;-80
2021/07/30 02:03:04;;;;;;;14.30;9.93;;;15.90;99.90;;;;;;5023155;28;20213;-80
2021/07/30 02:05:29;;;;;;;13.70;9.63;;;16.00;99.90;;;;;;5022841;28;20217;-80
2021/07/30 02:07:55;;;;;;;11.73;9.37;;;16.00;99.90;;;;;;5024039;28;20238;-80
2021/07/30 02:10:21;;;;;;;11.03;9.33;;;15.90;99.90;;;;;;5023393;28;20186;-82
2021/07/30 02:15:31;;;;;;;11.77;8.47;;;15.90;99.90;;;;;;5025118;28;20206;-83
2021/07/30 02:17:56;;;;;;;10.53;8.77;;;15.90;99.90;;;;;;5024019;28;20175;-83
2021/07/30 02:20:22;;;;;;;9.93;8.73;;;15.80;99.90;;;;;;5023764;28;20198;-83
2021/07/30 02:22:47;;;;;;;11.83;9.00;;;15.90;99.90;;;;;;5025644;28;20628;-83
2021/07/30 02:25:13;;;;;;;10.43;8.20;;;15.90;99.90;;;;;;5025694;28;20199;-83
2021/07/30 02:27:39;;;;;;;13.37;8.73;;;15.90;99.90;;;;;;5025702;28;20586;-83
2021/07/30 02:30:05;;;;;;;9.33;7.83;;;15.90;99.90;;;;;;5025412;28;20171;-83
2021/07/30 02:32:30;;;;;;;11.77;8.87;;;15.90;99.90;;;;;;5024450;28;20225;-83
2021/07/30 02:34:56;;;;;;;11.57;8.63;;;15.80;99.90;;;;;;5026113;28;20211;-83
2021/07/30 02:37:22;;;;;;;11.17;8.10;;;15.80;99.90;;;;;;5026100;28;20179;-83
2021/07/30 02:39:47;;;;;;;11.73;8.90;;;15.80;99.90;;;;;;5025064;28;20222;-83
2021/07/30 02:42:13;;;;;;;11.37;8.70;;;15.80;99.90;;;;;;5028326;28;20183;-83
2021/07/30 02:44:39;;;;;;;10.87;8.57;;;15.80;99.90;;;;;;4994315;28;1152678;-83
2021/07/30 02:47:04;;;;;;;11.30;8.83;;;15.80;99.90;;;;;;5038136;28;20187;-82
2021/07/30 02:49:30;;;;;;;9.37;8.33;;;15.80;99.90;;;;;;5038336;28;20214;-83
2021/07/30 02:51:56;;;;;;;12.87;8.83;;;15.80;99.90;;;;;;5037841;28;20183;-82
2021/07/30 02:54:21;;;;;;;11.50;9.00;;;15.80;99.90;;;;;;5035741;28;20253;-80
2021/07/30 02:56:47;;;;;;;11.20;9.10;;;15.90;99.90;;;;;;5025348;28;20226;-83
2021/07/30 02:59:13;;;;;;;10.07;8.60;;;15.90;99.90;;;;;;5025103;28;20229;-83
2021/07/30 03:01:39;;;;;;;10.13;8.80;;;15.90;99.90;;;;;;5023461;28;20185;-83
2021/07/30 03:04:05;;;;;;;11.80;10.07;;;15.90;99.90;;;;;;5023756;28;20616;-81
2021/07/30 03:06:30;;;;;;;13.60;9.13;;;15.90;99.90;;;;;;5023320;28;20321;-80
2021/07/30 03:08:56;;;;;;;9.73;8.73;;;16.00;99.90;;;;;;5024481;28;20179;-80
2021/07/30 03:11:22;;;;;;;14.10;9.37;;;16.00;99.90;;;;;;5024415;28;20179;-80
2021/07/30 03:13:48;;;;;;;11.40;8.33;;;16.00;99.90;;;;;;5023927;28;20680;-80
2021/07/30 03:16:14;;;;;;;10.87;8.83;;;16.00;99.90;;;;;;5023031;28;20185;-80
2021/07/30 03:18:41;;;;;;;10.47;9.07;;;16.00;99.90;;;;;;5022049;28;20282;-83
2021/07/30 03:21:06;;;;;;;11.47;9.50;;;16.00;99.90;;;;;;5024555;28;20241;-84
2021/07/30 03:23:32;;;;;;;13.70;9.93;;;16.00;99.90;;;;;;5024091;28;20183;-83
2021/07/30 03:25:57;;;;;;;15.13;9.87;;;16.00;99.90;;;;;;5024487;28;20240;-83
2021/07/30 03:28:23;;;;;;;13.07;8.90;;;16.00;99.90;;;;;;5022847;28;20186;-83
2021/07/30 03:30:49;;;;;;;12.67;9.90;;;16.00;99.90;;;;;;5023256;28;20179;-80
2021/07/30 03:33:15;;;;;;;13.10;10.00;;;16.00;99.90;;;;;;5022878;28;20280;-83
2021/07/30 03:35:40;;;;;;;14.03;10.40;;;16.00;99.90;;;;;;5021472;28;20195;-80
2021/07/30 03:38:07;;;;;;;14.60;9.87;;;16.00;99.90;;;;;;5022784;28;20170;-80
2021/07/30 03:40:33;;;;;;;15.67;10.07;;;15.90;99.90;;;;;;5022843;28;20185;-80
2021/07/30 03:42:58;;;;;;;12.40;10.30;;;15.90;99.90;;;;;;5022732;28;20213;-80
2021/07/30 03:45:24;;;;;;;12.07;9.90;;;15.90;99.90;;;;;;5023376;28;20238;-80
2021/07/30 03:47:50;;;;;;;12.53;10.43;;;15.90;99.90;;;;;;5024896;28;20182;-80
2021/07/30 03:50:16;;;;;;;13.50;9.90;;;15.90;99.90;;;;;;5027280;28;20202;-81
2021/07/30 03:52:42;;;;;;;15.77;10.97;;;15.80;99.90;;;;;;5022292;28;20183;-81
2021/07/30 03:55:08;;;;;;;12.50;10.10;;;15.80;99.90;;;;;;5024062;28;20206;-81
2021/07/30 03:57:34;;;;;;;14.27;10.23;;;15.80;99.90;;;;;;5022579;28;20210;-81
2021/07/30 04:00:00;;;;;;;13.60;11.20;;;15.80;99.90;;;;;;5023792;28;20179;-81
2021/07/30 04:02:25;;;;;;;12.83;9.57;;;15.80;99.90;;;;;;5022348;28;20178;-81
2021/07/30 04:04:51;;;;;;;10.50;8.73;;;15.80;99.90;;;;;;5021857;28;20202;-82
2021/07/30 04:07:17;;;;;;;15.37;9.23;;;15.80;99.90;;;;;;5024364;28;20257;-81
2021/07/30 04:09:42;;;;;;;10.10;9.03;;;15.80;99.90;;;;;;5021879;28;20233;-81
2021/07/30 04:12:08;;;;;;;9.20;8.13;;;15.80;99.90;;;;;;5022949;28;20225;-81
2021/07/30 04:14:34;;;;;;;12.50;8.60;;;15.80;99.90;;;;;;5022649;28;20559;-81
2021/07/30 04:16:59;;;;;;;11.13;8.97;;;15.80;99.90;;;;;;5023046;28;20175;-81
2021/07/30 04:19:25;;;;;;;9.90;8.50;;;15.80;99.90;;;;;;5022099;28;20170;-81
2021/07/30 04:21:51;;;;;;;11.60;8.63;;;15.80;99.90;;;;;;5023495;28;20258;-81
2021/07/30 04:24:17;;;;;;;15.23;9.30;;;15.80;99.90;;;;;;5021446;28;20606;-81
2021/07/30 04:26:43;;;;;;;9.50;8.33;;;15.90;99.90;;;;;;5021952;28;20246;-81
2021/07/30 04:29:09;;;;;;;11.90;9.27;;;15.90;99.90;;;;;;5022192;28;20187;-81
2021/07/30 04:31:40;;;;;;;11.67;8.63;;;15.90;99.90;;;;;;5017482;28;20175;-81
2021/07/30 04:34:06;;;;;;;13.70;8.83;;;15.90;99.90;;;;;;5018686;28;20212;-81
2021/07/30 04:36:32;;;;;;;9.93;8.17;;;15.90;99.90;;;;;;5023061;28;20171;-81
2021/07/30 04:38:58;;;;;;;15.93;9.07;;;15.90;99.90;;;;;;5021793;28;20206;-81
2021/07/30 04:41:23;;;;;;;10.70;9.27;;;15.90;99.90;;;;;;5021396;28;20187;-81
2021/07/30 04:43:49;;;;;;;10.23;8.43;;;15.90;99.90;;;;;;5022989;28;20201;-81
2021/07/30 04:46:16;;;;;;;11.20;8.23;;;15.90;99.90;;;;;;5021302;28;20273;-81
2021/07/30 04:48:42;;;;;;;11.80;8.00;;;15.80;99.90;;;;;;5021291;28;20318;-82
2021/07/30 04:51:08;;;;;;;10.10;8.57;;;15.80;99.90;;;;;;5023195;28;20179;-82
2021/07/30 04:53:34;;;;;;;10.43;8.60;;;15.80;99.90;;;;;;5022380;28;20213;-82
2021/07/30 04:56:00;;;;;;;11.73;8.97;;;15.80;99.90;;;;;;5023412;28;20235;-82
2021/07/30 04:58:25;;;;;;;13.90;8.07;;;15.80;99.90;;;;;;5023707;28;20205;-82
2021/07/30 05:00:51;;;;;;;10.90;8.33;;;15.80;99.90;;;;;;5025183;28;20171;-82
2021/07/30 05:03:16;;;;;;;9.27;8.13;;;15.80;99.90;;;;;;5025337;28;20176;-82
2021/07/30 05:05:42;;;;;;;9.53;8.53;;;15.80;99.90;;;;;;5024820;28;20548;-82
2021/07/30 05:08:08;;;;;;;10.77;8.23;;;15.90;99.90;;;;;;5025603;28;20237;-82
2021/07/30 05:10:33;;;;;;;9.73;7.97;;;15.90;99.90;;;;;;5024241;28;20183;-82
2021/07/30 05:13:00;;;;;;;10.87;7.60;;;15.90;99.90;;;;;;5024779;28;20297;-81
2021/07/30 05:15:26;;;;;;;9.73;8.30;;;15.90;99.90;;;;;;5024506;28;20187;-81
2021/07/30 05:17:51;;;;;;;10.80;8.07;;;16.00;99.90;;;;;;5023425;28;20171;-81
2021/07/30 05:20:17;;;;;;;10.40;8.17;;;16.00;99.90;;;;;;5022845;28;20667;-82
2021/07/30 05:22:43;;;;;;;11.13;8.40;;;16.00;99.90;;;;;;5022203;28;20202;-81
2021/07/30 05:25:12;;;;;;;8.97;7.67;;;16.00;99.90;;;;;;5023626;28;20253;-82
2021/07/30 05:27:38;;;;;;;9.73;8.07;;;16.10;99.90;;;;;;5024260;28;20171;-82
2021/07/30 05:30:04;;;;;;;9.60;7.23;;;16.10;99.90;;;;;;5022998;28;20186;-83
2021/07/30 05:32:30;;;;;;;11.70;8.13;;;16.10;99.90;;;;;;5026932;28;20182;-81
2021/07/30 05:34:56;;;;;;;9.37;7.83;;;16.20;99.90;;;;;;5034210;28;20214;-81
2021/07/30 05:37:21;;;;;;;10.73;7.67;;;16.30;99.90;;;;;;5030816;28;20187;-81
2021/07/30 05:39:47;;;;;;;8.80;7.67;;;16.30;99.90;;;;;;5022143;28;20174;-81
2021/07/30 05:42:13;;;;;;;11.07;7.40;;;16.40;99.90;;;;;;5016601;28;20171;-81
2021/07/30 05:44:39;;;;;;;9.53;8.00;;;16.40;99.90;;;;;;5017353;28;20582;-82
2021/07/30 05:47:05;;;;;;;9.53;7.53;;;16.50;99.90;;;;;;5020940;28;20183;-82
2021/07/30 05:49:33;;;;;;;11.63;8.13;;;16.50;99.90;;;;;;5022878;28;20190;-82
2021/07/30 05:51:59;;;;;;;11.13;7.77;;;16.60;99.90;;;;;;5021769;28;20199;-81
2021/07/30 05:54:24;;;;;;;9.93;7.97;;;16.60;99.90;;;;;;5021041;28;20546;-82
2021/07/30 05:56:55;;;;;;;8.73;7.83;;;16.70;99.90;;;;;;5021020;28;20179;-82
2021/07/30 05:59:20;;;;;;;9.80;7.90;;;16.80;99.90;;;;;;5023326;28;20175;-82
2021/07/30 06:01:46;;;;;;;11.10;8.17;;;16.90;99.90;;;;;;5026009;28;20182;-82
2021/07/30 06:04:11;;;;;;;10.27;8.07;;;16.90;99.90;;;;;;5025721;28;20195;-82
2021/07/30 06:06:37;;;;;;;8.33;7.30;;;17.00;99.90;;;;;;5024456;28;20640;-82
2021/07/30 06:09:02;;;;;;;8.63;7.70;;;17.20;99.90;;;;;;5024631;28;20245;-81
2021/07/30 06:11:28;;;;;;;10.07;7.80;;;17.30;99.90;;;;;;5024084;28;20210;-82
2021/07/30 06:13:54;;;;;;;11.53;7.30;;;17.40;99.90;;;;;;5023872;28;20273;-82
2021/07/30 06:16:20;;;;;;;8.63;7.73;;;17.60;99.90;;;;;;5022355;28;20594;-82
2021/07/30 06:18:45;;;;;;;9.63;7.27;;;17.70;99.90;;;;;;5023901;28;20182;-82
2021/07/30 06:21:11;;;;;;;7.87;6.90;;;17.80;99.90;;;;;;5023505;28;20179;-82
2021/07/30 06:23:36;;;;;;;8.87;6.80;;;17.80;99.90;;;;;;5025463;28;20270;-82
2021/07/30 06:26:02;;;;;;;9.10;6.60;;;17.90;99.90;;;;;;5024847;28;20218;-82
2021/07/30 06:28:28;;;;;;;7.43;6.70;;;18.00;99.90;;;;;;5024811;28;20261;-82
2021/07/30 06:30:53;;;;;;;8.47;7.00;;;18.00;99.90;;;;;;5025325;28;20183;-82
2021/07/30 06:33:22;;;;;;;9.67;7.00;;;18.10;99.90;;;;;;5023246;28;20246;-82
2021/07/30 06:35:49;;;;;;;10.13;7.30;;;18.20;99.90;;;;;;5025169;28;20202;-82
2021/07/30 06:38:14;;;;;;;8.47;7.27;;;18.20;99.90;;;;;;5023821;28;20218;-82
2021/07/30 06:40:40;;;;;;;9.37;6.90;;;18.20;99.90;;;;;;5025036;28;20179;-82
2021/07/30 06:43:06;;;;;;;11.87;7.17;;;18.20;99.90;;;;;;5025361;28;20176;-82
2021/07/30 06:45:31;;;;;;;12.83;7.53;;;18.10;99.90;;;;;;5024815;28;20218;-82
2021/07/30 06:47:57;;;;;;;8.73;7.60;;;18.10;99.90;;;;;;5025505;28;20715;-82
2021/07/30 06:50:22;;;;;;;8.73;6.73;;;18.10;99.90;;;;;;5024838;28;20634;-82
2021/07/30 06:52:48;;;;;;;9.13;6.73;;;18.20;99.90;;;;;;5025356;28;20229;-83
2021/07/30 06:55:14;;;;;;;8.27;6.53;;;18.30;99.90;;;;;;5025394;28;20203;-82
2021/07/30 06:57:39;;;;;;;13.33;7.70;;;18.40;99.90;;;;;;5025983;28;20660;-82
2021/07/30 07:00:06;;;;;;;7.93;7.13;;;18.50;99.90;;;;;;5024536;28;20184;-82
2021/07/30 07:02:31;;;;;;;8.90;6.70;;;18.50;99.90;;;;;;5026518;28;20526;-82
2021/07/30 07:04:57;;;;;;;10.73;6.30;;;18.60;99.90;;;;;;5025213;28;20278;-83
2021/07/30 07:07:24;;;;;;;7.87;7.07;;;18.70;99.90;;;;;;5026013;28;20182;-82
2021/07/30 07:09:51;;;;;;;7.93;7.10;;;18.80;99.90;;;;;;5025327;28;20222;-83
2021/07/30 07:12:17;;;;;;;10.90;7.33;;;18.80;99.90;;;;;;5027181;28;20171;-82
2021/07/30 07:14:42;;;;;;;8.77;6.87;;;18.80;99.90;;;;;;5027637;28;20204;-83
2021/07/30 07:17:08;;;;;;;8.63;7.00;;;18.90;99.90;;;;;;5028939;28;20243;-83
2021/07/30 07:19:34;;;;;;;8.27;7.40;;;19.00;99.90;;;;;;5028274;28;20187;-83
2021/07/30 07:22:00;;;;;;;8.33;7.40;;;19.10;99.90;;;;;;5027724;28;20206;-83
2021/07/30 07:24:26;;;;;;;8.50;6.97;;;19.20;99.90;;;;;;5025542;28;20563;-82
2021/07/30 07:26:51;;;;;;;8.97;7.40;;;19.20;99.90;;;;;;5025599;28;20184;-82
2021/07/30 07:29:17;;;;;;;10.90;7.00;;;19.40;99.90;;;;;;5024040;28;20724;-82
2021/07/30 07:31:45;;;;;;;10.80;7.63;;;19.50;99.90;;;;;;5023961;28;20183;-82
2021/07/30 07:34:11;;;;;;;9.83;7.73;;;19.60;99.90;;;;;;5022838;28;20216;-82
2021/07/30 07:36:37;;;;;;;9.43;6.80;;;19.70;99.90;;;;;;5024530;28;20180;-83
2021/07/30 07:39:03;;;;;;;13.70;7.80;;;19.80;99.90;;;;;;5022954;28;20195;-82
2021/07/30 07:41:30;;;;;;;11.83;7.60;;;19.80;99.90;;;;;;5022849;28;20190;-82
2021/07/30 07:43:56;;;;;;;8.77;7.13;;;19.90;99.90;;;;;;5022445;28;20697;-83
2021/07/30 07:46:21;;;;;;;11.37;6.93;;;20.00;99.90;;;;;;5023247;28;20179;-82
2021/07/30 07:48:47;;;;;;;7.23;6.43;;;20.10;99.90;;;;;;5025671;28;20189;-82
2021/07/30 07:51:13;;;;;;;8.30;6.70;;;20.30;99.90;;;;;;5024984;28;20173;-82
2021/07/30 07:53:38;;;;;;;9.67;6.73;;;20.30;99.90;;;;;;5024689;28;20651;-82
2021/07/30 07:56:06;;;;;;;7.33;6.00;;;20.40;99.90;;;;;;5023613;28;20279;-82
2021/07/30 07:58:33;;;;;;;7.00;6.30;;;20.60;99.90;;;;;;5025229;28;20195;-82
2021/07/30 08:00:59;;;;;;;8.40;6.33;;;20.70;99.90;;;;;;5025484;28;20184;-82
2021/07/30 08:03:25;;;;;;;9.27;7.63;;;20.80;99.90;;;;;;5024223;28;20211;-82
2021/07/30 08:05:51;;;;;;;10.50;7.27;;;20.90;99.90;;;;;;5025655;28;20199;-83
2021/07/30 08:08:17;;;;;;;9.97;7.20;;;21.00;99.90;;;;;;5025485;28;20185;-82
2021/07/30 08:10:42;;;;;;;6.97;6.27;;;21.10;99.90;;;;;;5025029;28;20522;-82
2021/07/30 08:13:08;;;;;;;7.50;5.80;;;21.30;99.90;;;;;;5026072;28;20259;-82
2021/07/30 08:15:34;;;;;;;7.67;6.10;;;21.40;99.90;;;;;;5026993;28;20192;-82
2021/07/30 08:18:00;;;;;;;7.10;6.20;;;21.60;99.90;;;;;;5033385;28;20242;-81
2021/07/30 08:20:26;;;;;;;9.10;6.60;;;21.70;99.90;;;;;;5032993;28;20562;-82
2021/07/30 08:22:51;;;;;;;6.43;5.67;;;21.90;99.90;;;;;;5022053;28;20543;-82
2021/07/30 08:25:17;;;;;;;7.17;6.10;;;22.00;99.90;;;;;;5022498;28;20222;-82
2021/07/30 08:27:43;;;;;;;6.33;5.73;;;22.10;99.90;;;;;;5022669;28;20206;-82
2021/07/30 08:30:09;;;;;;;6.67;6.07;;;22.20;99.90;;;;;;5022374;28;20187;-82
2021/07/30 08:32:35;;;;;;;8.03;6.27;;;22.40;99.90;;;;;;5021410;28;20182;-82
2021/07/30 08:35:01;;;;;;;9.63;5.87;;;22.40;99.90;;;;;;5022595;28;20223;-82
2021/07/30 08:37:26;;;;;;;5.73;5.23;;;22.60;99.90;;;;;;5022923;28;20182;-82
2021/07/30 08:39:52;;;;;;;7.30;5.63;;;22.60;99.90;;;;;;5023938;28;20171;-82
2021/07/30 08:42:19;;;;;;;6.10;5.50;;;22.70;99.90;;;;;;5023476;28;20179;-81
2021/07/30 08:44:45;;;;;;;7.53;5.57;;;22.80;99.90;;;;;;5022141;28;20309;-82
2021/07/30 08:47:12;;;;;;;6.80;4.97;;;22.80;99.90;;;;;;5021763;28;20206;-81
2021/07/30 08:49:38;;;;;;;6.23;5.63;;;22.90;99.90;;;;;;5019934;28;20271;-82
2021/07/30 08:52:10;;;;;;;6.43;5.43;;;23.10;99.90;;;;;;5019167;28;20218;-82
2021/07/30 08:54:37;;;;;;;6.20;5.60;;;23.30;99.90;;;;;;5021482;28;20303;-81
2021/07/30 08:57:08;;;;;;;6.47;5.73;;;23.40;99.90;;;;;;5020207;28;20187;-82
2021/07/30 08:59:36;;;;;;;6.70;5.50;;;23.50;99.90;;;;;;5021389;28;20225;-82
2021/07/30 09:02:02;;;;;;;7.27;5.30;;;23.60;99.90;;;;;;5021335;28;20180;-82
2021/07/30 09:04:29;;;;;;;6.50;5.60;;;23.60;99.90;;;;;;5020239;28;20693;-81
2021/07/30 09:06:55;;;;;;;5.83;5.23;;;23.80;99.90;;;;;;5022054;28;20709;-81
2021/07/30 09:09:21;;;;;;;7.20;5.93;;;23.80;99.90;;;;;;5022579;28;20191;-81
2021/07/30 09:11:51;;;;;;;22.37;5.80;;;24.00;99.90;;;;;;5021490;28;20189;-81
2021/07/30 09:14:33;;;;;;;6.20;5.43;;;24.10;99.90;;;;;;5022626;28;20261;-82
2021/07/30 09:16:59;;;;;;;5.43;4.83;;;24.20;99.90;;;;;;5023591;28;20163;-82
2021/07/30 09:19:25;;;;;;;6.07;5.23;;;24.30;99.90;;;;;;5021663;28;20189;-81
2021/07/30 09:22:11;;;;;;;6.30;5.10;;;24.40;99.90;;;;;;5022499;28;20600;-82
2021/07/30 09:24:40;;;;;;;5.23;4.73;;;24.50;99.90;;;;;;5022997;28;20216;-82
2021/07/30 09:27:11;;;;;;;6.83;5.30;;;24.60;99.90;;;;;;5022231;28;20232;-82
2021/07/30 09:29:39;;;;;;;5.63;4.87;;;24.80;99.90;;;;;;5023350;28;20198;-83
2021/07/30 09:32:13;;;;;;;5.23;4.60;;;24.80;99.90;;;;;;5024189;28;20233;-82
2021/07/30 09:34:45;;;;;;;5.03;4.20;;;24.90;99.90;;;;;;5025340;28;20352;-82
2021/07/30 09:37:13;;;;;;;5.53;4.20;;;25.00;99.90;;;;;;5024682;28;20216;-82
2021/07/30 09:39:47;;;;;;;6.17;4.50;;;25.10;99.90;;;;;;5023122;28;20183;-82
2021/07/30 09:42:13;;;;;;;7.10;4.37;;;25.20;99.90;;;;;;5024863;28;20167;-82
2021/07/30 09:44:42;;;;;;;4.73;4.30;;;25.20;99.90;;;;;;5024875;28;20634;-82
2021/07/30 09:47:09;;;;;;;4.40;4.00;;;25.40;99.90;;;;;;5025072;28;20185;-82
2021/07/30 09:49:53;;;;;;;4.70;4.30;;;25.50;99.90;;;;;;5023809;28;20187;-82
2021/07/30 09:52:33;;;;;;;5.77;4.17;;;25.70;99.90;;;;;;5024346;28;20175;-82
2021/07/30 09:55:00;;;;;;;5.03;4.33;;;25.80;99.90;;;;;;5025596;28;20279;-82
2021/07/30 09:57:28;;;;;;;4.30;3.90;;;25.90;99.90;;;;;;5024337;28;20192;-82
2021/07/30 10:00:15;;;;;;;4.77;3.90;;;25.90;99.90;;;;;;5025764;28;20186;-83
2021/07/30 10:02:45;;;;;;;6.90;4.03;;;26.10;99.90;;;;;;5025222;28;20238;-82
2021/07/30 10:05:14;;;;;;;5.40;4.40;;;26.20;99.90;;;;;;5026587;28;20204;-83
2021/07/30 10:07:41;;;;;;;6.10;3.93;;;26.30;99.90;;;;;;5025249;28;20180;-80
2021/07/30 10:10:29;;;;;;;4.37;3.93;;;26.40;99.90;;;;;;5028647;28;20229;-82
2021/07/30 10:12:57;;;;;;;4.83;4.33;;;26.50;99.90;;;;;;5024735;28;20157;-83
2021/07/30 10:15:23;;;;;;;5.63;4.30;;;26.50;99.90;;;;;;5022742;28;20274;-82
2021/07/30 10:17:51;;;;;;;4.77;4.27;;;26.60;99.90;;;;;;5022204;28;20646;-82
2021/07/30 10:20:19;;;;;;;4.30;3.90;;;26.80;99.90;;;;;;5025315;28;20251;-82
2021/07/30 10:22:56;;;;;;;5.00;4.30;;;27.00;99.90;;;;;;5024797;28;20665;-82
2021/07/30 10:25:24;;;;;;;4.70;4.30;;;27.20;99.90;;;;;;5025102;28;20208;-81
2021/07/30 10:27:56;;;;;;;8.47;4.40;;;27.40;99.90;;;;;;5023362;28;20258;-81
2021/07/30 10:30:22;;;;;;;4.93;4.17;;;27.40;99.90;;;;;;5025445;28;20178;-81
2021/07/30 10:32:55;;;;;;;9.33;4.93;;;27.50;99.90;;;;;;5023553;28;20185;-81
2021/07/30 10:35:27;;;;;;;5.57;4.07;;;27.80;99.90;;;;;;5024442;28;20198;-82
2021/07/30 10:38:21;;;;;;;8.50;6.50;;;27.90;99.90;;;;;;5022792;28;20554;-79
2021/07/30 10:40:55;;;;;;;4.97;4.47;;;28.10;99.90;;;;;;5023506;28;20175;-82
2021/07/30 10:43:22;;;;;;;5.40;4.27;;;28.10;99.90;;;;;;5021654;28;20639;-79
2021/07/30 10:46:10;;;;;;;5.47;4.40;;;28.10;99.90;;;;;;5021372;28;20246;-79
2021/07/30 10:48:38;;;;;;;4.90;4.40;;;28.10;99.90;;;;;;5021679;28;20182;-79
2021/07/30 10:51:21;;;;;;;4.63;4.13;;;28.00;99.90;;;;;;5022263;28;20183;-79
2021/07/30 10:53:54;;;;;;;6.60;4.77;;;28.00;99.90;;;;;;5020784;28;20206;-79
2021/07/30 10:56:19;;;;;;;5.43;4.60;;;27.80;99.90;;;;;;5021788;28;20175;-79
2021/07/30 10:58:45;;;;;;;5.97;4.23;;;28.00;99.90;;;;;;5023198;28;20182;-78
2021/07/30 11:01:19;;;;;;;7.20;4.53;;;28.00;99.90;;;;;;5024981;28;20199;-78
2021/07/30 11:03:53;;;;;;;4.50;4.10;;;27.90;99.90;;;;;;5022855;28;20182;-79
2021/07/30 11:06:30;;;;;;;6.67;4.50;;;27.90;99.90;;;;;;5020706;28;20652;-81
2021/07/30 11:11:56;;;;;;;5.37;4.60;;;28.40;99.90;;;;;;5023699;28;20187;-80
2021/07/30 11:14:38;;;;;;;5.13;4.50;;;28.60;99.90;;;;;;5022714;28;20218;-80
2021/07/30 11:17:06;;;;;;;5.13;4.63;;;28.90;99.90;;;;;;5021699;28;20254;-81
2021/07/30 11:19:43;;;;;;;7.23;4.93;;;29.10;99.90;;;;;;5022976;28;20176;-81
2021/07/30 11:22:16;;;;;;;6.07;4.90;;;28.80;99.90;;;;;;5021674;28;20223;-81
2021/07/30 11:24:47;;;;;;;4.40;4.00;;;28.40;99.90;;;;;;5023082;28;20228;-81
2021/07/30 11:27:15;;;;;;;5.23;4.20;;;28.30;99.90;;;;;;5022084;28;20268;-81
2021/07/30 11:29:46;;;;;;;5.10;4.60;;;28.10;99.90;;;;;;5020768;28;20641;-80
2021/07/30 11:32:15;;;;;;;5.73;3.90;;;28.10;99.90;;;;;;5021009;28;20179;-80
2021/07/30 11:34:43;;;;;;;5.63;4.83;;;28.50;99.90;;;;;;5020659;28;20243;-80
2021/07/30 11:37:11;;;;;;;4.70;4.30;;;28.60;99.90;;;;;;5020484;28;20557;-83
2021/07/30 11:39:43;;;;;;;4.40;4.00;;;28.50;99.90;;;;;;5023146;28;20179;-84
2021/07/30 11:42:12;;;;;;;4.63;4.23;;;28.30;99.90;;;;;;5022997;28;20165;-82
2021/07/30 11:44:45;;;;;;;4.67;4.27;;;28.30;99.90;;;;;;5021551;28;20629;-83
2021/07/30 11:47:11;;;;;;;5.33;4.70;;;28.20;99.90;;;;;;5025267;28;20275;-83
2021/07/30 11:49:38;;;;;;;4.93;4.43;;;28.50;99.90;;;;;;5024185;28;20182;-83
2021/07/30 11:52:06;;;;;;;4.60;4.20;;;29.10;99.90;;;;;;5026259;28;20173;-83
2021/07/30 11:54:33;;;;;;;5.67;4.40;;;29.40;99.90;;;;;;5019585;28;20278;-84
2021/07/30 11:57:00;;;;;;;4.80;4.30;;;29.90;99.90;;;;;;5022901;28;20226;-83
2021/07/30 11:59:26;;;;;;;6.13;4.47;;;29.80;99.90;;;;;;5018728;28;20643;-84
2021/07/30 12:02:05;;;;;;;4.43;4.13;;;29.40;99.90;;;;;;5022530;28;20248;-83
2021/07/30 12:04:32;;;;;;;5.10;4.70;;;28.90;99.90;;;;;;5028267;28;20230;-83
2021/07/30 12:07:04;;;;;;;4.70;4.03;;;28.40;99.90;;;;;;5044842;28;20177;-81
2021/07/30 12:09:31;;;;;;;5.40;4.40;;;27.80;99.90;;;;;;5044087;28;20177;-81
2021/07/30 12:11:59;;;;;;;4.43;4.03;;;27.40;99.90;;;;;;5039140;28;20176;-81
2021/07/30 12:14:27;;;;;;;4.43;4.03;;;27.10;99.90;;;;;;5037404;28;20214;-81
2021/07/30 12:16:53;;;;;;;4.17;3.77;;;27.10;99.90;;;;;;5037468;28;20259;-82
2021/07/30 12:19:33;;;;;;;4.60;4.20;;;27.80;99.90;;;;;;5038107;28;20175;-81
2021/07/30 12:22:05;;;;;;;6.80;4.13;;;27.90;99.90;;;;;;5038226;28;20183;-81
2021/07/30 12:24:32;;;;;;;4.67;4.17;;;27.60;99.90;;;;;;5039269;28;20747;-81
2021/07/30 12:27:18;;;;;;;4.03;3.73;;;27.40;99.90;;;;;;5038727;28;20190;-82
2021/07/30 12:29:47;;;;;;;4.53;4.13;;;28.10;99.90;;;;;;5039955;28;20192;-81
2021/07/30 12:32:21;;;;;;;4.23;3.83;;;29.40;99.90;;;;;;5040180;28;20176;-82
2021/07/30 12:35:05;;;;;;;5.30;4.20;;;30.00;99.90;;;;;;5040751;28;20554;-81
2021/07/30 12:37:35;;;;;;;5.50;5.00;;;30.20;99.90;;;;;;5039418;28;20546;-82
2021/07/30 12:40:03;;;;;;;5.60;4.73;;;29.90;99.90;;;;;;5044884;28;20226;-81
2021/07/30 12:42:31;;;;;;;5.43;4.30;;;29.50;99.90;;;;;;5039604;28;20179;-82
2021/07/30 12:45:00;;;;;;;4.60;4.20;;;29.90;99.90;;;;;;5039701;28;20216;-82
2021/07/30 12:47:26;;;;;;;5.67;4.23;;;29.90;99.90;;;;;;5037975;28;20190;-81
2021/07/30 12:49:52;;;;;;;5.17;4.50;;;30.30;99.90;;;;;;5038932;28;20186;-82